createdAt,value
2022-09-20T00:00:02.336Z,11.20
2022-09-20T00:01:04.751Z,11.19
2022-09-20T00:02:02.137Z,11.19
2022-09-20T00:03:02.641Z,11.19
2022-09-20T00:04:02.548Z,11.17
2022-09-20T00:05:02.365Z,11.15
2022-09-20T00:06:02.379Z,11.14
2022-09-20T00:07:02.379Z,11.12
2022-09-20T00:08:02.234Z,11.11
2022-09-20T00:09:04.533Z,11.10
2022-09-20T00:10:02.299Z,11.11
2022-09-20T00:11:02.317Z,11.10
2022-09-20T00:12:02.418Z,11.09
2022-09-20T00:13:02.748Z,11.09
2022-09-20T00:14:01.885Z,11.09
2022-09-20T00:15:02.069Z,11.10
2022-09-20T00:16:02.171Z,11.10
2022-09-20T00:17:02.163Z,11.10
2022-09-20T00:18:02.803Z,11.11
2022-09-20T00:19:02.685Z,11.13
2022-09-20T00:20:02.140Z,11.14
2022-09-20T00:21:02.301Z,11.17
2022-09-20T00:22:02.011Z,11.20
2022-09-20T00:23:03.027Z,11.23
2022-09-20T00:24:01.867Z,11.24
2022-09-20T00:25:02.245Z,11.24
2022-09-20T00:26:02.037Z,11.24
2022-09-20T00:27:02.383Z,11.22
2022-09-20T00:28:02.556Z,11.21
2022-09-20T00:29:02.028Z,11.19
2022-09-20T00:30:01.795Z,11.18
2022-09-20T00:31:02.340Z,11.16
2022-09-20T00:32:01.704Z,11.15
2022-09-20T00:33:01.848Z,11.14
2022-09-20T00:34:01.995Z,11.15
2022-09-20T00:35:02.445Z,11.15
2022-09-20T00:36:02.125Z,11.15
2022-09-20T00:37:03.030Z,11.14
2022-09-20T00:38:01.764Z,11.14
2022-09-20T00:39:03.505Z,11.14
2022-09-20T00:40:02.596Z,11.15
2022-09-20T00:41:01.845Z,11.15
2022-09-20T00:42:01.694Z,11.14
2022-09-20T00:43:02.322Z,11.13
2022-09-20T00:44:01.810Z,11.12
2022-09-20T00:45:01.885Z,11.10
2022-09-20T00:46:03.362Z,11.09
2022-09-20T00:47:02.277Z,11.08
2022-09-20T00:48:02.246Z,11.07
2022-09-20T00:49:01.952Z,11.05
2022-09-20T00:50:02.085Z,11.03
2022-09-20T00:51:03.158Z,11.02
2022-09-20T00:52:02.414Z,11.00
2022-09-20T00:53:02.024Z,10.98
2022-09-20T00:54:01.867Z,10.95
2022-09-20T00:55:02.794Z,10.94
2022-09-20T00:56:01.856Z,10.92
2022-09-20T00:57:03.020Z,10.91
2022-09-20T00:58:01.174Z,10.91
2022-09-20T00:59:04.160Z,10.91
2022-09-20T01:00:01.710Z,10.93
2022-09-20T01:01:22.830Z,10.95
2022-09-20T01:02:01.888Z,10.97
2022-09-20T01:03:01.698Z,10.98
2022-09-20T01:05:22.739Z,10.43
2022-09-20T01:06:10.315Z,10.43
2022-09-20T01:07:11.697Z,10.67
2022-09-20T01:08:11.166Z,10.79
2022-09-20T01:09:11.928Z,10.86
2022-09-20T01:10:11.149Z,10.89
2022-09-20T01:11:13.501Z,10.90
2022-09-20T01:12:11.394Z,10.92
2022-09-20T01:13:10.666Z,10.93
2022-09-20T01:14:10.438Z,10.94
2022-09-20T01:15:10.806Z,10.95
2022-09-20T01:16:10.745Z,10.94
2022-09-20T01:17:10.921Z,10.93
2022-09-20T01:18:11.162Z,10.93
2022-09-20T01:19:11.028Z,10.95
2022-09-20T01:20:10.534Z,10.96
2022-09-20T01:21:12.107Z,10.97
2022-09-20T01:22:11.656Z,10.99
2022-09-20T01:23:11.089Z,10.99
2022-09-20T01:24:11.164Z,10.99
2022-09-20T01:25:11.531Z,10.99
2022-09-20T01:26:10.526Z,10.97
2022-09-20T01:27:10.399Z,10.95
2022-09-20T01:28:10.280Z,10.93
2022-09-20T01:29:10.445Z,10.92
2022-09-20T01:30:12.138Z,10.90
2022-09-20T01:31:10.862Z,10.89
2022-09-20T01:32:11.251Z,10.87
2022-09-20T01:33:10.430Z,10.86
2022-09-20T01:34:10.238Z,10.85
2022-09-20T01:35:10.497Z,10.83
2022-09-20T01:36:10.214Z,10.81
2022-09-20T01:37:12.357Z,10.79
2022-09-20T01:38:10.462Z,10.77
2022-09-20T01:39:11.675Z,10.74
2022-09-20T01:40:10.574Z,10.73
2022-09-20T01:41:10.398Z,10.74
2022-09-20T01:42:10.047Z,10.75
2022-09-20T01:43:10.342Z,10.74
2022-09-20T01:44:10.604Z,10.75
2022-09-20T01:45:10.321Z,10.74
2022-09-20T01:46:10.455Z,10.72
2022-09-20T01:47:11.903Z,10.68
2022-09-20T01:48:11.279Z,10.67
2022-09-20T01:49:10.374Z,10.68
2022-09-20T01:50:10.316Z,10.69
2022-09-20T01:51:10.517Z,10.67
2022-09-20T01:52:09.892Z,10.67
2022-09-20T01:53:10.027Z,10.67
2022-09-20T01:54:11.134Z,10.63
2022-09-20T01:55:10.571Z,10.61
2022-09-20T01:56:11.765Z,10.57
2022-09-20T01:57:10.306Z,10.53
2022-09-20T01:58:10.390Z,10.51
2022-09-20T01:59:23.837Z,10.51
2022-09-20T02:00:11.496Z,10.51
2022-09-20T02:01:10.179Z,10.49
2022-09-20T02:02:11.104Z,10.48
2022-09-20T02:03:10.257Z,10.46
2022-09-20T02:04:10.443Z,10.44
2022-09-20T02:05:11.138Z,10.41
2022-09-20T02:06:10.412Z,10.37
2022-09-20T02:07:10.698Z,10.33
2022-09-20T02:08:10.858Z,10.29
2022-09-20T02:09:10.405Z,10.26
2022-09-20T02:10:09.993Z,10.22
2022-09-20T02:11:10.045Z,10.17
2022-09-20T02:12:10.003Z,10.09
2022-09-20T02:13:11.098Z,10.02
2022-09-20T02:14:10.423Z,9.98
2022-09-20T02:15:10.434Z,10.00
2022-09-20T02:16:09.942Z,10.03
2022-09-20T02:17:09.992Z,10.06
2022-09-20T02:18:10.213Z,10.09
2022-09-20T02:19:10.053Z,10.11
2022-09-20T02:20:10.423Z,10.11
2022-09-20T02:21:10.197Z,10.09
2022-09-20T02:22:10.159Z,10.05
2022-09-20T02:23:11.235Z,10.04
2022-09-20T02:24:09.946Z,10.06
2022-09-20T02:25:11.126Z,10.09
2022-09-20T02:26:10.519Z,10.12
2022-09-20T02:27:10.141Z,10.16
2022-09-20T02:28:09.507Z,10.20
2022-09-20T02:29:11.143Z,10.23
2022-09-20T02:30:09.690Z,10.24
2022-09-20T02:31:11.267Z,10.26
2022-09-20T02:32:10.131Z,10.28
2022-09-20T02:33:10.117Z,10.29
2022-09-20T02:34:10.480Z,10.30
2022-09-20T02:35:10.296Z,10.32
2022-09-20T02:36:09.413Z,10.35
2022-09-20T02:37:09.557Z,10.37
2022-09-20T02:38:09.432Z,10.38
2022-09-20T02:39:13.441Z,10.37
2022-09-20T02:40:09.269Z,10.37
2022-09-20T02:41:09.109Z,10.38
2022-09-20T02:42:09.679Z,10.39
2022-09-20T02:43:09.505Z,10.41
2022-09-20T02:44:09.170Z,10.41
2022-09-20T02:45:10.479Z,10.38
2022-09-20T02:46:09.749Z,10.33
2022-09-20T02:47:09.277Z,10.27
2022-09-20T02:48:09.626Z,10.22
2022-09-20T02:49:11.261Z,10.20
2022-09-20T02:50:09.604Z,10.20
2022-09-20T02:51:09.642Z,10.20
2022-09-20T02:52:09.700Z,10.22
2022-09-20T02:53:11.703Z,10.21
2022-09-20T02:54:09.450Z,10.17
2022-09-20T02:55:09.208Z,10.14
2022-09-20T02:56:09.135Z,10.14
2022-09-20T02:57:10.252Z,10.11
2022-09-20T02:58:09.516Z,10.09
2022-09-20T02:59:09.056Z,10.08
2022-09-20T03:00:08.875Z,10.09
2022-09-20T03:01:08.961Z,10.10
2022-09-20T03:02:09.177Z,10.12
2022-09-20T03:03:30.368Z,10.14
2022-09-20T03:04:09.763Z,10.16
2022-09-20T03:05:09.194Z,10.17
2022-09-20T03:06:09.342Z,10.18
2022-09-20T03:07:09.353Z,10.16
2022-09-20T03:08:09.099Z,10.10
2022-09-20T03:09:11.286Z,10.05
2022-09-20T03:10:09.050Z,9.99
2022-09-20T03:11:08.940Z,9.94
2022-09-20T03:12:09.991Z,9.91
2022-09-20T03:13:08.965Z,9.93
2022-09-20T03:14:09.064Z,9.95
2022-09-20T03:15:08.889Z,9.99
2022-09-20T03:16:08.929Z,10.03
2022-09-20T03:17:30.306Z,10.09
2022-09-20T03:18:08.854Z,10.15
2022-09-20T03:19:08.907Z,10.21
2022-09-20T03:20:09.058Z,10.26
2022-09-20T03:21:10.166Z,10.30
2022-09-20T03:22:08.983Z,10.34
2022-09-20T03:23:10.259Z,10.37
2022-09-20T03:24:09.425Z,10.40
2022-09-20T03:25:09.107Z,10.41
2022-09-20T03:26:09.628Z,10.39
2022-09-20T03:27:30.116Z,10.39
2022-09-20T03:28:09.236Z,10.38
2022-09-20T03:29:09.466Z,10.37
2022-09-20T03:30:09.244Z,10.37
2022-09-20T03:31:08.865Z,10.38
2022-09-20T03:32:09.098Z,10.39
2022-09-20T03:33:09.792Z,10.40
2022-09-20T03:34:08.424Z,10.40
2022-09-20T03:35:08.457Z,10.42
2022-09-20T03:36:10.494Z,10.44
2022-09-20T03:37:11.785Z,10.46
2022-09-20T03:38:10.814Z,10.46
2022-09-20T03:39:08.800Z,10.48
2022-09-20T03:40:09.127Z,10.50
2022-09-20T03:41:10.330Z,10.50
2022-09-20T03:42:09.830Z,10.51
2022-09-20T03:43:09.996Z,10.52
2022-09-20T03:44:10.267Z,10.53
2022-09-20T03:45:08.739Z,10.55
2022-09-20T03:46:08.446Z,10.59
2022-09-20T03:47:08.328Z,10.62
2022-09-20T03:48:08.933Z,10.65
2022-09-20T03:49:08.746Z,10.66
2022-09-20T03:50:08.978Z,10.66
2022-09-20T03:51:08.241Z,10.66
2022-09-20T03:52:08.823Z,10.65
2022-09-20T03:53:12.081Z,10.63
2022-09-20T03:54:09.081Z,10.62
2022-09-20T03:55:08.468Z,10.62
2022-09-20T03:56:08.601Z,10.61
2022-09-20T03:57:08.498Z,10.59
2022-09-20T03:58:09.185Z,10.58
2022-09-20T03:59:09.410Z,10.57
2022-09-20T04:00:09.416Z,10.56
2022-09-20T04:01:09.542Z,10.54
2022-09-20T04:02:08.743Z,10.54
2022-09-20T04:03:08.657Z,10.53
2022-09-20T04:04:08.453Z,10.54
2022-09-20T04:05:08.180Z,10.54
2022-09-20T04:06:08.383Z,10.53
2022-09-20T04:07:08.426Z,10.54
2022-09-20T04:08:08.607Z,10.53
2022-09-20T04:09:29.186Z,10.53
2022-09-20T04:10:08.646Z,10.53
2022-09-20T04:11:08.855Z,10.53
2022-09-20T04:12:08.445Z,10.52
2022-09-20T04:13:10.765Z,10.49
2022-09-20T04:14:11.407Z,10.48
2022-09-20T04:15:08.510Z,10.47
2022-09-20T04:16:08.082Z,10.45
2022-09-20T04:17:08.213Z,10.42
2022-09-20T04:18:08.161Z,10.40
2022-09-20T04:19:08.228Z,10.38
2022-09-20T04:20:08.405Z,10.37
2022-09-20T04:21:08.314Z,10.37
2022-09-20T04:22:08.634Z,10.39
2022-09-20T04:23:08.672Z,10.40
2022-09-20T04:24:08.327Z,10.41
2022-09-20T04:25:08.623Z,10.43
2022-09-20T04:26:08.591Z,10.44
2022-09-20T04:27:08.064Z,10.45
2022-09-20T04:28:09.274Z,10.46
2022-09-20T04:29:08.067Z,10.46
2022-09-20T04:30:08.340Z,10.47
2022-09-20T04:31:08.097Z,10.49
2022-09-20T04:32:09.214Z,10.51
2022-09-20T04:33:07.988Z,10.51
2022-09-20T04:34:10.880Z,10.49
2022-09-20T04:35:08.322Z,10.49
2022-09-20T04:36:07.985Z,10.49
2022-09-20T04:37:08.843Z,10.49
2022-09-20T04:38:09.185Z,10.50
2022-09-20T04:39:07.905Z,10.53
2022-09-20T04:40:07.733Z,10.56
2022-09-20T04:41:07.548Z,10.58
2022-09-20T04:42:07.910Z,10.62
2022-09-20T04:43:08.551Z,10.65
2022-09-20T04:44:10.067Z,10.67
2022-09-20T04:45:07.578Z,10.69
2022-09-20T04:46:08.666Z,10.70
2022-09-20T04:47:07.845Z,10.71
2022-09-20T04:48:09.936Z,10.72
2022-09-20T04:49:07.650Z,10.73
2022-09-20T04:50:08.658Z,10.74
2022-09-20T04:51:08.009Z,10.75
2022-09-20T04:52:07.598Z,10.76
2022-09-20T04:53:08.022Z,10.77
2022-09-20T04:54:08.429Z,10.79
2022-09-20T04:55:07.196Z,10.80
2022-09-20T04:56:07.605Z,10.81
2022-09-20T04:57:07.646Z,10.81
2022-09-20T04:58:07.706Z,10.82
2022-09-20T04:59:07.732Z,10.84
2022-09-20T05:00:07.350Z,10.83
2022-09-20T05:01:07.438Z,10.82
2022-09-20T05:02:15.784Z,10.82
2022-09-20T05:03:07.554Z,10.82
2022-09-20T05:04:07.282Z,10.83
2022-09-20T05:05:07.469Z,10.84
2022-09-20T05:06:07.307Z,10.86
2022-09-20T05:07:07.192Z,10.87
2022-09-20T05:08:08.639Z,10.89
2022-09-20T05:09:07.766Z,10.90
2022-09-20T05:10:07.714Z,10.91
2022-09-20T05:11:09.027Z,10.92
2022-09-20T05:12:07.386Z,10.94
2022-09-20T05:13:07.260Z,10.96
2022-09-20T05:14:07.222Z,10.99
2022-09-20T05:15:07.785Z,11.01
2022-09-20T05:16:08.649Z,11.01
2022-09-20T05:17:07.449Z,11.02
2022-09-20T05:18:07.366Z,11.04
2022-09-20T05:19:07.418Z,11.07
2022-09-20T05:20:08.209Z,11.08
2022-09-20T05:21:07.125Z,11.09
2022-09-20T05:22:09.434Z,11.09
2022-09-20T05:23:07.523Z,11.12
2022-09-20T05:24:09.471Z,11.16
2022-09-20T05:25:07.215Z,11.19
2022-09-20T05:26:12.644Z,11.19
2022-09-20T05:27:07.560Z,11.19
2022-09-20T05:28:07.238Z,11.18
2022-09-20T05:29:07.257Z,11.18
2022-09-20T05:30:07.338Z,11.18
2022-09-20T05:31:07.182Z,11.19
2022-09-20T05:32:08.498Z,11.20
2022-09-20T05:33:07.096Z,11.22
2022-09-20T05:34:07.111Z,11.24
2022-09-20T05:35:06.721Z,11.28
2022-09-20T05:36:07.444Z,11.32
2022-09-20T05:37:06.860Z,11.34
2022-09-20T05:38:08.416Z,11.33
2022-09-20T05:39:07.915Z,11.32
2022-09-20T05:40:07.107Z,11.32
2022-09-20T05:41:07.054Z,11.32
2022-09-20T05:42:07.106Z,11.34
2022-09-20T05:43:06.902Z,11.38
2022-09-20T05:44:08.062Z,11.37
2022-09-20T05:45:06.677Z,11.37
2022-09-20T05:46:06.973Z,11.39
2022-09-20T05:47:07.677Z,11.39
2022-09-20T05:48:07.004Z,11.39
2022-09-20T05:49:06.829Z,11.38
2022-09-20T05:50:07.001Z,11.37
2022-09-20T05:51:06.947Z,11.34
2022-09-20T05:52:06.559Z,11.32
2022-09-20T05:53:07.184Z,11.32
2022-09-20T05:54:07.082Z,11.33
2022-09-20T05:55:06.691Z,11.32
2022-09-20T05:56:07.904Z,11.31
2022-09-20T05:57:06.824Z,11.32
2022-09-20T05:58:08.677Z,11.33
2022-09-20T05:59:08.795Z,11.32
2022-09-20T06:00:06.931Z,11.32
2022-09-20T06:01:06.706Z,11.32
2022-09-20T06:02:06.777Z,11.32
2022-09-20T06:03:06.503Z,11.33
2022-09-20T06:04:06.646Z,11.32
2022-09-20T06:05:06.910Z,11.29
2022-09-20T06:06:06.468Z,11.27
2022-09-20T06:07:06.526Z,11.25
2022-09-20T06:08:06.630Z,11.22
2022-09-20T06:09:06.625Z,11.23
2022-09-20T06:10:06.627Z,11.23
2022-09-20T06:11:06.242Z,11.23
2022-09-20T06:12:06.460Z,11.22
2022-09-20T06:13:06.924Z,11.21
2022-09-20T06:14:06.327Z,11.21
2022-09-20T06:15:06.850Z,11.20
2022-09-20T06:16:06.141Z,11.21
2022-09-20T06:17:06.679Z,11.22
2022-09-20T06:18:06.735Z,11.23
2022-09-20T06:19:07.050Z,11.24
2022-09-20T06:20:06.621Z,11.25
2022-09-20T06:21:07.719Z,11.24
2022-09-20T06:22:06.105Z,11.24
2022-09-20T06:23:07.401Z,11.26
2022-09-20T06:24:06.220Z,11.29
2022-09-20T06:25:06.892Z,11.31
2022-09-20T06:26:06.616Z,11.33
2022-09-20T06:27:06.317Z,11.31
2022-09-20T06:28:06.160Z,11.30
2022-09-20T06:29:07.231Z,11.29
2022-09-20T06:30:06.368Z,11.29
2022-09-20T06:31:06.519Z,11.29
2022-09-20T06:32:06.297Z,11.30
2022-09-20T06:33:06.504Z,11.33
2022-09-20T06:34:07.467Z,11.37
2022-09-20T06:35:07.368Z,11.40
2022-09-20T06:36:06.481Z,11.43
2022-09-20T06:37:08.520Z,11.43
2022-09-20T06:38:06.458Z,11.41
2022-09-20T06:39:07.145Z,11.40
2022-09-20T06:40:06.183Z,11.40
2022-09-20T06:41:06.105Z,11.41
2022-09-20T06:42:06.245Z,11.42
2022-09-20T06:43:06.085Z,11.43
2022-09-20T06:44:06.616Z,11.44
2022-09-20T06:45:06.244Z,11.46
2022-09-20T06:46:05.808Z,11.46
2022-09-20T06:47:05.956Z,11.47
2022-09-20T06:48:06.050Z,11.51
2022-09-20T06:49:06.204Z,11.53
2022-09-20T06:50:06.133Z,11.56
2022-09-20T06:51:27.143Z,11.58
2022-09-20T06:52:06.040Z,11.58
2022-09-20T06:53:06.436Z,11.59
2022-09-20T06:54:05.950Z,11.59
2022-09-20T06:55:06.379Z,11.58
2022-09-20T06:56:05.745Z,11.56
2022-09-20T06:57:06.319Z,11.53
2022-09-20T06:58:05.644Z,11.53
2022-09-20T06:59:05.784Z,11.52
2022-09-20T07:00:05.518Z,11.52
2022-09-20T07:01:05.927Z,11.53
2022-09-20T07:02:05.780Z,11.54
2022-09-20T07:03:05.799Z,11.56
2022-09-20T07:04:06.308Z,11.57
2022-09-20T07:05:06.101Z,11.56
2022-09-20T07:06:05.734Z,11.58
2022-09-20T07:07:09.437Z,11.59
2022-09-20T07:08:05.855Z,11.62
2022-09-20T07:09:05.780Z,11.63
2022-09-20T07:10:05.912Z,11.62
2022-09-20T07:11:07.749Z,11.61
2022-09-20T07:12:05.539Z,11.59
2022-09-20T07:13:05.786Z,11.58
2022-09-20T07:14:05.517Z,11.59
2022-09-20T07:15:05.703Z,11.57
2022-09-20T07:16:05.772Z,11.56
2022-09-20T07:17:11.066Z,11.55
2022-09-20T07:18:05.571Z,11.55
2022-09-20T07:19:05.574Z,11.56
2022-09-20T07:20:05.450Z,11.55
2022-09-20T07:21:05.892Z,11.56
2022-09-20T07:22:06.025Z,11.58
2022-09-20T07:23:06.910Z,11.58
2022-09-20T07:24:05.655Z,11.59
2022-09-20T07:25:05.420Z,11.60
2022-09-20T07:26:05.621Z,11.61
2022-09-20T07:27:05.418Z,11.63
2022-09-20T07:28:05.386Z,11.65
2022-09-20T07:29:06.109Z,11.67
2022-09-20T07:30:05.535Z,11.70
2022-09-20T07:31:05.588Z,11.74
2022-09-20T07:32:05.726Z,11.77
2022-09-20T07:33:05.527Z,11.81
2022-09-20T07:34:06.191Z,11.85
2022-09-20T07:35:06.410Z,11.88
2022-09-20T07:36:05.622Z,11.92
2022-09-20T07:37:05.530Z,11.97
2022-09-20T07:38:05.128Z,12.01
2022-09-20T07:39:05.125Z,12.05
2022-09-20T07:40:05.182Z,12.06
2022-09-20T07:41:05.125Z,12.07
2022-09-20T07:42:05.063Z,12.09
2022-09-20T07:43:05.392Z,12.12
2022-09-20T07:44:05.520Z,12.16
2022-09-20T07:45:05.108Z,12.19
2022-09-20T07:46:05.373Z,12.21
2022-09-20T07:47:05.531Z,12.25
2022-09-20T07:48:05.209Z,12.31
2022-09-20T07:49:05.026Z,12.42
2022-09-20T07:50:05.246Z,12.58
2022-09-20T07:51:08.542Z,12.71
2022-09-20T07:52:05.168Z,12.76
2022-09-20T07:53:05.097Z,12.78
2022-09-20T07:54:05.244Z,12.79
2022-09-20T07:55:04.977Z,12.82
2022-09-20T07:56:05.245Z,12.85
2022-09-20T07:57:04.890Z,12.87
2022-09-20T07:58:05.326Z,12.90
2022-09-20T07:59:05.003Z,12.93
2022-09-20T08:00:05.028Z,12.93
2022-09-20T08:01:06.725Z,12.93
2022-09-20T08:02:05.108Z,12.90
2022-09-20T08:03:04.870Z,12.89
2022-09-20T08:04:04.796Z,12.86
2022-09-20T08:05:04.987Z,12.86
2022-09-20T08:06:04.876Z,12.88
2022-09-20T08:07:06.470Z,12.91
2022-09-20T08:08:04.879Z,12.92
2022-09-20T08:09:08.960Z,12.94
2022-09-20T08:10:05.543Z,12.95
2022-09-20T08:11:04.956Z,13.00
2022-09-20T08:14:08.316Z,13.15
2022-09-20T08:15:08.464Z,13.23
2022-09-20T08:16:06.479Z,13.30
2022-09-20T08:17:04.792Z,13.30
2022-09-20T08:18:04.755Z,13.27
2022-09-20T08:19:06.101Z,13.26
2022-09-20T08:20:04.819Z,13.29
2022-09-20T08:21:04.742Z,13.26
2022-09-20T08:22:05.384Z,13.22
2022-09-20T08:23:22.625Z,13.19
2022-09-20T08:24:05.416Z,13.13
2022-09-20T08:25:04.934Z,13.04
2022-09-20T08:26:07.683Z,12.94
2022-09-20T08:27:04.774Z,12.81
2022-09-20T08:28:04.806Z,12.68
2022-09-20T08:29:05.466Z,12.58
2022-09-20T08:30:04.542Z,12.48
2022-09-20T08:31:06.111Z,12.41
2022-09-20T08:32:05.050Z,12.39
2022-09-20T08:33:04.364Z,12.36
2022-09-20T08:34:04.621Z,12.34
2022-09-20T08:35:05.748Z,12.36
2022-09-20T08:36:04.468Z,12.40
2022-09-20T08:37:05.533Z,12.45
2022-09-20T08:40:05.503Z,12.51
2022-09-20T08:41:04.683Z,12.50
2022-09-20T08:42:04.622Z,12.48
2022-09-20T08:43:05.459Z,12.46
2022-09-20T08:44:07.337Z,12.47
2022-09-20T08:45:04.579Z,12.47
2022-09-20T08:46:06.014Z,12.49
2022-09-20T08:47:04.574Z,12.56
2022-09-20T08:48:04.397Z,12.62
2022-09-20T08:49:04.517Z,12.68
2022-09-20T08:50:11.030Z,12.72
2022-09-20T08:51:05.716Z,12.79
2022-09-20T08:52:10.023Z,12.84
2022-09-20T08:53:05.095Z,12.85
2022-09-20T08:54:05.407Z,12.87
2022-09-20T08:55:07.692Z,12.89
2022-09-20T08:56:04.365Z,12.92
2022-09-20T08:57:04.312Z,12.94
2022-09-20T08:58:08.399Z,12.95
2022-09-20T08:59:04.191Z,12.94
2022-09-20T09:00:04.028Z,12.95
2022-09-20T09:01:04.276Z,12.94
2022-09-20T09:02:04.126Z,12.94
2022-09-20T09:03:04.478Z,12.93
2022-09-20T09:04:03.963Z,12.94
2022-09-20T09:05:04.452Z,12.95
2022-09-20T09:06:08.788Z,12.96
2022-09-20T09:07:05.349Z,12.99
2022-09-20T09:08:05.219Z,13.00
2022-09-20T09:09:04.196Z,13.02
2022-09-20T09:10:05.035Z,13.03
2022-09-20T09:11:04.113Z,13.02
2022-09-20T09:12:04.987Z,12.99
2022-09-20T09:13:04.018Z,12.96
2022-09-20T09:14:04.198Z,12.95
2022-09-20T09:15:04.027Z,12.95
2022-09-20T09:16:04.177Z,12.96
2022-09-20T09:17:03.965Z,12.97
2022-09-20T09:18:04.215Z,12.99
2022-09-20T09:19:04.215Z,13.02
2022-09-20T09:20:04.360Z,13.03
2022-09-20T09:21:04.111Z,13.04
2022-09-20T09:22:03.709Z,13.04
2022-09-20T09:23:03.724Z,13.07
2022-09-20T09:24:04.032Z,13.10
2022-09-20T09:25:03.873Z,13.14
2022-09-20T09:26:03.675Z,13.19
2022-09-20T09:27:03.634Z,13.21
2022-09-20T09:28:05.028Z,13.25
2022-09-20T09:29:03.660Z,13.30
2022-09-20T09:30:03.790Z,13.34
2022-09-20T09:31:03.986Z,13.38
2022-09-20T09:32:03.951Z,13.42
2022-09-20T09:33:03.717Z,13.46
2022-09-20T09:34:04.669Z,13.51
2022-09-20T09:35:03.692Z,13.57
2022-09-20T09:36:04.360Z,13.62
2022-09-20T09:37:04.762Z,13.66
2022-09-20T09:38:04.056Z,13.69
2022-09-20T09:39:04.094Z,13.73
2022-09-20T09:40:04.756Z,13.79
2022-09-20T09:41:05.419Z,13.82
2022-09-20T09:42:28.173Z,13.87
2022-09-20T09:43:06.117Z,13.92
2022-09-20T09:44:04.218Z,13.97
2022-09-20T09:45:03.801Z,14.00
2022-09-20T09:46:04.595Z,14.03
2022-09-20T09:47:05.665Z,14.06
2022-09-20T09:48:04.169Z,14.06
2022-09-20T09:49:03.674Z,14.06
2022-09-20T09:50:09.475Z,14.08
2022-09-20T09:51:05.015Z,14.11
2022-09-20T09:52:03.538Z,14.14
2022-09-20T09:53:03.350Z,14.19
2022-09-20T09:54:04.149Z,14.25
2022-09-20T09:55:05.624Z,14.29
2022-09-20T09:56:03.457Z,14.34
2022-09-20T09:57:03.656Z,14.41
2022-09-20T09:58:03.636Z,14.50
2022-09-20T09:59:03.403Z,14.60
2022-09-20T10:00:12.328Z,14.67
2022-09-20T10:01:04.517Z,14.70
2022-09-20T10:02:03.288Z,14.71
2022-09-20T10:03:03.085Z,14.71
2022-09-20T10:04:03.224Z,14.71
2022-09-20T10:05:03.430Z,14.65
2022-09-20T10:06:04.027Z,14.58
2022-09-20T10:07:03.899Z,14.53
2022-09-20T10:08:03.226Z,14.45
2022-09-20T10:09:03.885Z,14.40
2022-09-20T10:10:03.289Z,14.36
2022-09-20T10:11:03.545Z,14.33
2022-09-20T10:12:03.151Z,14.32
2022-09-20T10:13:03.452Z,14.34
2022-09-20T10:14:03.627Z,14.35
2022-09-20T10:15:03.628Z,14.35
2022-09-20T10:16:03.684Z,14.36
2022-09-20T10:17:03.486Z,14.36
2022-09-20T10:18:03.609Z,14.33
2022-09-20T10:19:03.338Z,14.27
2022-09-20T10:20:03.077Z,14.21
2022-09-20T10:21:03.200Z,14.17
2022-09-20T10:22:03.177Z,14.13
2022-09-20T10:23:34.455Z,14.10
2022-09-20T10:24:04.951Z,14.04
2022-09-20T10:25:03.039Z,13.98
2022-09-20T10:26:03.090Z,13.93
2022-09-20T10:27:03.028Z,13.89
2022-09-20T10:28:03.369Z,13.86
2022-09-20T10:29:02.693Z,13.84
2022-09-20T10:30:02.847Z,13.81
2022-09-20T10:31:02.917Z,13.78
2022-09-20T10:32:03.049Z,13.78
2022-09-20T10:33:02.817Z,13.78
2022-09-20T10:34:03.116Z,13.77
2022-09-20T10:35:02.650Z,13.78
2022-09-20T10:36:03.047Z,13.80
2022-09-20T10:37:02.784Z,13.83
2022-09-20T10:38:02.950Z,13.87
2022-09-20T10:39:02.814Z,13.94
2022-09-20T10:40:03.048Z,13.99
2022-09-20T10:41:02.887Z,14.06
2022-09-20T10:42:02.952Z,14.12
2022-09-20T10:43:02.671Z,14.18
2022-09-20T10:44:05.288Z,14.22
2022-09-20T10:45:02.589Z,14.29
2022-09-20T10:46:30.237Z,14.39
2022-09-20T10:47:03.792Z,14.52
2022-09-20T10:48:02.461Z,14.67
2022-09-20T10:49:03.206Z,14.83
2022-09-20T10:50:02.641Z,14.97
2022-09-20T10:51:03.582Z,15.07
2022-09-20T10:52:03.065Z,15.15
2022-09-20T10:53:02.667Z,15.22
2022-09-20T10:54:03.075Z,15.27
2022-09-20T10:55:02.841Z,15.32
2022-09-20T10:56:02.533Z,15.39
2022-09-20T10:57:02.629Z,15.41
2022-09-20T10:58:02.656Z,15.39
2022-09-20T10:59:02.457Z,15.36
2022-09-20T11:00:02.811Z,15.31
2022-09-20T11:01:02.731Z,15.26
2022-09-20T11:02:02.694Z,15.25
2022-09-20T11:03:02.915Z,15.23
2022-09-20T11:04:02.755Z,15.23
2022-09-20T11:05:02.485Z,15.26
2022-09-20T11:06:02.563Z,15.32
2022-09-20T11:07:03.026Z,15.38
2022-09-20T11:08:02.365Z,15.44
2022-09-20T11:09:03.079Z,15.49
2022-09-20T11:10:02.319Z,15.50
2022-09-20T11:11:03.196Z,15.51
2022-09-20T11:12:02.320Z,15.49
2022-09-20T11:13:02.526Z,15.45
2022-09-20T11:14:02.471Z,15.40
2022-09-20T11:15:02.832Z,15.34
2022-09-20T11:16:02.728Z,15.29
2022-09-20T11:17:02.665Z,15.25
2022-09-20T11:18:02.288Z,15.18
2022-09-20T11:19:02.041Z,15.11
2022-09-20T11:20:06.890Z,15.03
2022-09-20T11:21:03.031Z,15.00
2022-09-20T11:22:02.206Z,15.03
2022-09-20T11:23:02.655Z,15.09
2022-09-20T11:24:02.208Z,15.16
2022-09-20T11:25:02.242Z,15.21
2022-09-20T11:26:02.449Z,15.27
2022-09-20T11:27:02.134Z,15.31
2022-09-20T11:28:02.162Z,15.34
2022-09-20T11:29:02.258Z,15.35
2022-09-20T11:30:02.662Z,15.36
2022-09-20T11:31:02.374Z,15.32
2022-09-20T11:32:02.276Z,15.28
2022-09-20T11:33:02.198Z,15.19
2022-09-20T11:34:02.332Z,15.10
2022-09-20T11:35:02.213Z,15.02
2022-09-20T11:36:02.405Z,14.96
2022-09-20T11:37:02.193Z,14.95
2022-09-20T11:38:02.731Z,14.95
2022-09-20T11:39:02.059Z,14.91
2022-09-20T11:40:04.186Z,14.77
2022-09-20T11:41:01.966Z,14.61
2022-09-20T11:42:02.186Z,14.43
2022-09-20T11:43:02.370Z,14.28
2022-09-20T11:44:02.163Z,14.15
2022-09-20T11:45:01.734Z,13.98
2022-09-20T11:46:02.301Z,13.84
2022-09-20T11:47:02.533Z,13.73
2022-09-20T11:48:02.548Z,13.65
2022-09-20T11:49:02.173Z,13.58
2022-09-20T11:50:02.024Z,13.50
2022-09-20T11:51:01.908Z,13.39
2022-09-20T11:52:01.893Z,13.30
2022-09-20T11:53:01.677Z,13.20
2022-09-20T11:54:02.904Z,13.11
2022-09-20T11:55:01.995Z,13.05
2022-09-20T11:56:01.946Z,12.99
2022-09-20T11:57:01.737Z,12.97
2022-09-20T11:58:03.032Z,12.90
2022-09-20T11:59:01.867Z,12.83
2022-09-20T12:00:03.057Z,12.82
2022-09-20T12:01:01.596Z,12.83
2022-09-20T12:02:01.845Z,12.83
2022-09-20T12:03:02.251Z,12.79
2022-09-20T12:04:27.726Z,12.74
2022-09-20T12:05:03.655Z,12.69
2022-09-20T12:06:03.193Z,12.66
2022-09-20T12:07:07.649Z,12.64
2022-09-20T12:08:02.416Z,12.63
2022-09-20T12:09:01.912Z,12.60
2022-09-20T12:10:01.764Z,12.55
2022-09-20T12:11:01.746Z,12.52
2022-09-20T12:12:01.565Z,12.51
2022-09-20T12:13:02.850Z,12.54
2022-09-20T12:14:01.620Z,12.55
2022-09-20T12:15:01.514Z,12.56
2022-09-20T12:16:02.133Z,12.57
2022-09-20T12:17:01.988Z,12.57
2022-09-20T12:18:06.757Z,12.58
2022-09-20T12:19:02.592Z,12.57
2022-09-20T12:20:01.729Z,12.55
2022-09-20T12:21:02.383Z,12.54
2022-09-20T12:22:01.979Z,12.52
2022-09-20T12:23:01.475Z,12.51
2022-09-20T12:24:01.653Z,12.50
2022-09-20T12:25:01.162Z,12.49
2022-09-20T12:26:01.517Z,12.51
2022-09-20T12:27:01.231Z,12.54
2022-09-20T12:28:01.680Z,12.56
2022-09-20T12:29:01.137Z,12.56
2022-09-20T12:30:01.357Z,12.57
2022-09-20T12:31:01.230Z,12.57
2022-09-20T12:32:01.441Z,12.57
2022-09-20T12:33:01.119Z,12.59
2022-09-20T12:34:01.871Z,12.57
2022-09-20T12:35:01.218Z,12.55
2022-09-20T12:36:02.274Z,12.53
2022-09-20T12:37:01.045Z,12.51
2022-09-20T12:38:03.467Z,12.53
2022-09-20T12:39:01.309Z,12.56
2022-09-20T12:40:01.585Z,12.58
2022-09-20T12:41:02.012Z,12.60
2022-09-20T12:42:01.346Z,12.61
2022-09-20T12:43:01.817Z,12.62
2022-09-20T12:44:03.328Z,12.63
2022-09-20T12:45:01.790Z,12.62
2022-09-20T12:46:06.364Z,12.61
2022-09-20T12:47:02.067Z,12.61
2022-09-20T12:48:01.069Z,12.61
2022-09-20T12:49:01.223Z,12.62
2022-09-20T12:50:01.106Z,12.66
2022-09-20T12:51:00.970Z,12.69
2022-09-20T12:52:01.253Z,12.69
2022-09-20T12:53:01.107Z,12.67
2022-09-20T12:54:00.798Z,12.67
2022-09-20T12:55:04.648Z,12.70
2022-09-20T12:56:02.199Z,12.76
2022-09-20T12:57:01.608Z,12.81